createdAt,value
2023-04-16T00:00:18.325Z,9.64
2023-04-16T00:01:13.631Z,8.92
2023-04-16T00:02:13.839Z,16.28
2023-04-16T00:03:13.253Z,13.44
2023-04-16T00:04:13.558Z,9.08
2023-04-16T00:05:13.550Z,5.56
2023-04-16T00:06:13.476Z,6.64
2023-04-16T00:07:13.432Z,13.12
2023-04-16T00:08:13.589Z,7.76
2023-04-16T00:09:13.495Z,6.08
2023-04-16T00:10:13.742Z,3.64
2023-04-16T00:11:13.872Z,2.36
2023-04-16T00:12:12.911Z,1.92
2023-04-16T00:13:12.772Z,0.00
2023-04-16T00:14:13.760Z,3.76
2023-04-16T00:15:13.804Z,5.36
2023-04-16T00:16:13.958Z,0.60
2023-04-16T00:17:13.052Z,5.04
2023-04-16T00:18:13.091Z,8.44
2023-04-16T00:19:13.344Z,5.28
2023-04-16T00:20:13.323Z,2.84
2023-04-16T00:21:13.685Z,2.28
2023-04-16T00:22:13.622Z,4.08
2023-04-16T00:23:13.549Z,4.00
2023-04-16T00:24:13.449Z,5.84
2023-04-16T00:25:13.461Z,1.76
2023-04-16T00:26:13.348Z,3.08
2023-04-16T00:27:13.325Z,2.88
2023-04-16T00:28:13.191Z,6.16
2023-04-16T00:29:13.105Z,9.40
2023-04-16T00:30:13.020Z,3.24
2023-04-16T00:31:12.993Z,3.24
2023-04-16T00:32:12.905Z,5.32
2023-04-16T00:33:12.710Z,5.72
2023-04-16T00:34:13.617Z,3.32
2023-04-16T00:35:13.713Z,3.40
2023-04-16T00:36:13.630Z,4.60
2023-04-16T00:37:13.447Z,3.28
2023-04-16T00:38:13.240Z,5.00
2023-04-16T00:39:13.073Z,7.32
2023-04-16T00:40:13.269Z,5.52
2023-04-16T00:41:13.099Z,7.24
2023-04-16T00:42:13.101Z,5.40
2023-04-16T00:43:13.183Z,5.00
2023-04-16T00:44:13.514Z,5.64
2023-04-16T00:45:13.421Z,3.56
2023-04-16T00:46:13.387Z,1.88
2023-04-16T00:47:13.407Z,4.76
2023-04-16T00:48:13.231Z,11.84
2023-04-16T00:49:13.651Z,4.32
2023-04-16T00:50:18.567Z,3.80
2023-04-16T00:51:13.606Z,4.04
2023-04-16T00:52:13.519Z,4.92
2023-04-16T00:53:13.350Z,3.04
2023-04-16T00:54:13.236Z,6.08
2023-04-16T00:55:13.310Z,7.20
2023-04-16T00:56:13.230Z,8.00
2023-04-16T00:57:13.162Z,6.88
2023-04-16T00:58:13.161Z,8.04
2023-04-16T00:59:13.383Z,5.12
2023-04-16T01:00:13.580Z,6.68
2023-04-16T01:01:13.604Z,5.00
2023-04-16T01:02:14.247Z,8.40
2023-04-16T01:03:13.439Z,5.28
2023-04-16T01:04:13.558Z,2.76
2023-04-16T01:05:13.566Z,11.08
2023-04-16T01:06:13.794Z,8.36
2023-04-16T01:07:13.680Z,6.80
2023-04-16T01:08:13.508Z,5.00
2023-04-16T01:09:13.623Z,6.24
2023-04-16T01:10:13.716Z,4.56
2023-04-16T01:11:13.588Z,7.64
2023-04-16T01:12:13.720Z,3.72
2023-04-16T01:13:13.662Z,7.16
2023-04-16T01:14:13.982Z,5.24
2023-04-16T01:15:12.965Z,4.40
2023-04-16T01:16:12.906Z,8.08
2023-04-16T01:17:12.997Z,7.56
2023-04-16T01:18:13.125Z,6.32
2023-04-16T01:19:13.138Z,4.60
2023-04-16T01:20:13.105Z,6.88
2023-04-16T01:21:13.274Z,6.44
2023-04-16T01:22:13.244Z,7.12
2023-04-16T01:23:13.347Z,4.12
2023-04-16T01:24:13.416Z,4.96
2023-04-16T01:25:13.374Z,5.76
2023-04-16T01:26:13.326Z,5.04
2023-04-16T01:27:13.200Z,4.88
2023-04-16T01:28:13.081Z,4.04
2023-04-16T01:29:12.996Z,4.72
2023-04-16T01:30:12.908Z,8.72
2023-04-16T01:31:12.938Z,7.28
2023-04-16T01:32:12.872Z,7.48
2023-04-16T01:33:13.944Z,4.84
2023-04-16T01:34:12.938Z,4.88
2023-04-16T01:35:12.846Z,5.44
2023-04-16T01:36:13.713Z,6.36
2023-04-16T01:37:13.645Z,8.76
2023-04-16T01:38:13.567Z,5.44
2023-04-16T01:39:13.792Z,7.52
2023-04-16T01:40:13.848Z,7.36
2023-04-16T01:41:13.692Z,6.04
2023-04-16T01:42:13.884Z,9.00
2023-04-16T01:43:12.932Z,10.40
2023-04-16T01:44:13.070Z,8.92
2023-04-16T01:45:13.164Z,10.48
2023-04-16T01:46:13.079Z,9.64
2023-04-16T01:47:13.012Z,3.80
2023-04-16T01:48:12.926Z,7.88
2023-04-16T01:49:12.882Z,4.24
2023-04-16T01:50:12.810Z,7.92
2023-04-16T01:51:13.652Z,4.08
2023-04-16T01:52:13.626Z,5.44
2023-04-16T01:53:13.477Z,13.24
2023-04-16T01:54:13.449Z,7.88
2023-04-16T01:55:13.656Z,6.96
2023-04-16T01:56:13.518Z,6.76
2023-04-16T01:57:13.775Z,5.00
2023-04-16T01:58:14.129Z,11.56
2023-04-16T01:59:13.296Z,8.60
2023-04-16T02:00:13.652Z,9.00
2023-04-16T02:01:13.474Z,5.76
2023-04-16T02:02:13.529Z,9.48
2023-04-16T02:03:13.672Z,10.92
2023-04-16T02:04:13.830Z,10.76
2023-04-16T02:05:13.943Z,10.28
2023-04-16T02:06:12.871Z,6.00
2023-04-16T02:07:13.689Z,9.36
2023-04-16T02:08:13.718Z,12.52
2023-04-16T02:09:13.933Z,9.00
2023-04-16T02:10:12.834Z,12.80
2023-04-16T02:11:13.895Z,11.48
2023-04-16T02:12:12.855Z,9.16
2023-04-16T02:13:13.941Z,12.40
2023-04-16T02:14:18.078Z,10.44
2023-04-16T02:15:12.920Z,7.92
2023-04-16T02:16:12.863Z,6.72
2023-04-16T02:17:13.021Z,9.12
2023-04-16T02:18:13.103Z,11.76
2023-04-16T02:19:12.923Z,6.04
2023-04-16T02:20:12.835Z,5.20
2023-04-16T02:21:13.981Z,5.08
2023-04-16T02:22:12.859Z,2.12
2023-04-16T02:23:14.041Z,7.36
2023-04-16T02:24:13.027Z,6.96
2023-04-16T02:25:13.016Z,4.96
2023-04-16T02:26:13.463Z,2.56
2023-04-16T02:27:13.942Z,4.68
2023-04-16T02:28:13.097Z,5.16
2023-04-16T02:29:13.085Z,8.40
2023-04-16T02:30:13.109Z,3.64
2023-04-16T02:31:13.136Z,7.12
2023-04-16T02:32:13.340Z,5.88
2023-04-16T02:33:13.273Z,6.08
2023-04-16T02:34:13.317Z,8.13
2023-04-16T02:35:13.388Z,3.88
2023-04-16T02:36:13.676Z,6.76
2023-04-16T02:37:13.920Z,5.28
2023-04-16T02:38:13.055Z,4.08
2023-04-16T02:39:13.010Z,5.08
2023-04-16T02:40:13.181Z,2.52
2023-04-16T02:41:13.139Z,5.00
2023-04-16T02:42:13.084Z,8.20
2023-04-16T02:43:13.389Z,6.16
2023-04-16T02:44:13.412Z,5.32
2023-04-16T02:45:13.508Z,2.56
2023-04-16T02:46:13.641Z,7.44
2023-04-16T02:47:13.578Z,2.16
2023-04-16T02:48:13.450Z,7.96
2023-04-16T02:49:13.561Z,10.00
2023-04-16T02:50:13.475Z,6.00
2023-04-16T02:51:13.570Z,10.16
2023-04-16T02:52:15.505Z,7.92
2023-04-16T02:53:13.732Z,9.56
2023-04-16T02:54:14.049Z,4.68
2023-04-16T02:55:12.921Z,5.32
2023-04-16T02:56:12.990Z,5.12
2023-04-16T02:57:13.076Z,6.16
2023-04-16T02:58:13.309Z,4.44
2023-04-16T02:59:13.497Z,7.00
2023-04-16T03:00:13.612Z,5.72
2023-04-16T03:01:13.605Z,3.08
2023-04-16T03:02:13.945Z,5.16
2023-04-16T03:03:13.053Z,5.16
2023-04-16T03:04:13.056Z,4.52
2023-04-16T03:05:13.136Z,3.56
2023-04-16T03:06:13.293Z,6.20
2023-04-16T03:07:13.471Z,6.20
2023-04-16T03:08:13.728Z,6.52
2023-04-16T03:09:13.496Z,5.56
2023-04-16T03:10:13.442Z,8.36
2023-04-16T03:11:13.899Z,8.80
2023-04-16T03:12:13.009Z,13.48
2023-04-16T03:13:12.926Z,12.00
2023-04-16T03:14:12.962Z,7.36
2023-04-16T03:15:12.917Z,10.76
2023-04-16T03:16:12.845Z,10.80
2023-04-16T03:17:12.992Z,6.48
2023-04-16T03:18:13.218Z,3.60
2023-04-16T03:19:13.095Z,6.16
2023-04-16T03:20:12.977Z,3.72
2023-04-16T03:21:12.927Z,9.32
2023-04-16T03:22:12.982Z,7.76
2023-04-16T03:23:13.145Z,4.52
2023-04-16T03:24:14.524Z,7.20
2023-04-16T03:25:13.936Z,4.00
2023-04-16T03:26:12.974Z,4.44
2023-04-16T03:27:12.858Z,5.04
2023-04-16T03:28:13.809Z,6.24
2023-04-16T03:29:13.726Z,2.52
2023-04-16T03:30:13.732Z,1.40
2023-04-16T03:31:13.927Z,4.60
2023-04-16T03:32:12.857Z,2.96
2023-04-16T03:33:13.860Z,4.04
2023-04-16T03:34:13.798Z,2.72
2023-04-16T03:35:13.711Z,2.44
2023-04-16T03:36:13.577Z,8.80
2023-04-16T03:37:13.860Z,8.76
2023-04-16T03:38:13.969Z,4.64
2023-04-16T03:39:12.964Z,2.44
2023-04-16T03:40:12.811Z,9.04
2023-04-16T03:41:13.602Z,3.60
2023-04-16T03:42:13.501Z,4.96
2023-04-16T03:43:13.589Z,5.64
2023-04-16T03:44:13.587Z,1.72
2023-04-16T03:45:13.551Z,6.68
2023-04-16T03:46:13.827Z,8.16
2023-04-16T03:47:12.845Z,4.12
2023-04-16T03:48:13.998Z,5.68
2023-04-16T03:49:12.893Z,4.16
2023-04-16T03:50:12.790Z,4.24
2023-04-16T03:51:13.927Z,4.08
2023-04-16T03:52:12.878Z,5.24
2023-04-16T03:53:12.766Z,1.44
2023-04-16T03:54:13.760Z,4.08
2023-04-16T03:55:13.619Z,8.52
2023-04-16T03:56:14.782Z,5.16
2023-04-16T03:57:13.763Z,3.12
2023-04-16T03:58:13.742Z,14.04
2023-04-16T03:59:13.806Z,12.80
2023-04-16T04:00:13.698Z,9.24
2023-04-16T04:01:13.555Z,5.88
2023-04-16T04:02:13.823Z,5.80
2023-04-16T04:03:12.986Z,4.88
2023-04-16T04:04:13.248Z,7.32
2023-04-16T04:05:13.349Z,2.44
2023-04-16T04:06:13.355Z,14.64
2023-04-16T04:07:13.364Z,8.88
2023-04-16T04:08:13.245Z,5.20
2023-04-16T04:09:13.445Z,7.80
2023-04-16T04:10:13.378Z,5.60
2023-04-16T04:11:13.355Z,3.88
2023-04-16T04:12:13.227Z,7.08
2023-04-16T04:13:13.458Z,8.24
2023-04-16T04:14:13.369Z,7.20
2023-04-16T04:15:13.415Z,7.64
2023-04-16T04:16:13.424Z,6.08
2023-04-16T04:17:13.334Z,1.72
2023-04-16T04:18:13.290Z,2.92
2023-04-16T04:19:13.132Z,4.24
2023-04-16T04:20:13.210Z,7.20
2023-04-16T04:21:13.427Z,4.72
2023-04-16T04:22:13.309Z,4.68
2023-04-16T04:23:13.203Z,5.40
2023-04-16T04:24:13.654Z,6.32
2023-04-16T04:25:13.547Z,5.93
2023-04-16T04:26:13.436Z,7.00
2023-04-16T04:27:13.451Z,7.71
2023-04-16T04:28:13.396Z,4.04
2023-04-16T04:29:13.344Z,3.19
2023-04-16T04:30:13.439Z,5.44
2023-04-16T04:31:13.396Z,5.48
2023-04-16T04:32:13.298Z,7.40
2023-04-16T04:33:13.330Z,8.16
2023-04-16T04:34:13.796Z,10.96
2023-04-16T04:35:13.964Z,10.64
2023-04-16T04:36:13.130Z,5.88
2023-04-16T04:37:13.080Z,6.68
2023-04-16T04:38:15.564Z,2.20
2023-04-16T04:39:13.120Z,7.28
2023-04-16T04:40:13.107Z,4.28
2023-04-16T04:41:13.214Z,3.08
2023-04-16T04:42:13.203Z,5.28
2023-04-16T04:43:13.103Z,6.88
2023-04-16T04:44:13.131Z,6.32
2023-04-16T04:45:13.008Z,5.68
2023-04-16T04:46:13.568Z,5.84
2023-04-16T04:47:13.422Z,6.12
2023-04-16T04:48:13.219Z,5.36
2023-04-16T04:49:13.233Z,3.32
2023-04-16T04:50:13.156Z,0.64
2023-04-16T04:51:13.230Z,1.48
2023-04-16T04:52:13.198Z,2.20
2023-04-16T04:53:13.296Z,2.24
2023-04-16T04:54:13.182Z,2.28
2023-04-16T04:55:13.024Z,1.68
2023-04-16T04:56:13.310Z,1.16
2023-04-16T04:57:13.357Z,2.76
2023-04-16T04:58:13.576Z,2.20
2023-04-16T04:59:13.705Z,4.44
2023-04-16T05:00:13.642Z,2.88
2023-04-16T05:01:13.624Z,3.16
2023-04-16T05:02:13.795Z,0.00
2023-04-16T05:03:13.830Z,4.64
2023-04-16T05:04:13.817Z,2.28
2023-04-16T05:05:13.918Z,2.88
2023-04-16T05:06:12.844Z,4.20
2023-04-16T05:07:13.828Z,8.68
2023-04-16T05:08:13.700Z,4.72
2023-04-16T05:09:13.490Z,10.40
2023-04-16T05:10:13.493Z,5.96
2023-04-16T05:11:13.400Z,6.44
2023-04-16T05:12:13.325Z,10.96
2023-04-16T05:13:13.238Z,6.72
2023-04-16T05:14:13.261Z,11.88
2023-04-16T05:15:13.152Z,7.64
2023-04-16T05:16:13.486Z,10.92
2023-04-16T05:17:13.343Z,10.00
2023-04-16T05:18:13.309Z,8.52
2023-04-16T05:19:13.234Z,9.88
2023-04-16T05:20:13.569Z,3.00
2023-04-16T05:21:14.602Z,6.04
2023-04-16T05:22:13.628Z,12.68
2023-04-16T05:23:13.940Z,10.40
2023-04-16T05:24:14.782Z,8.08
2023-04-16T05:25:12.969Z,8.08
2023-04-16T05:26:12.930Z,10.96
2023-04-16T05:27:12.923Z,18.32
2023-04-16T05:28:12.808Z,7.76
2023-04-16T05:29:13.961Z,7.16
2023-04-16T05:30:12.877Z,4.56
2023-04-16T05:31:12.767Z,4.08
2023-04-16T05:32:13.682Z,2.36
2023-04-16T05:33:13.683Z,3.60
2023-04-16T05:34:14.648Z,8.48
2023-04-16T05:35:15.312Z,2.08
2023-04-16T05:36:13.207Z,3.40
2023-04-16T05:37:13.427Z,5.00
2023-04-16T05:38:13.314Z,5.76
2023-04-16T05:39:13.194Z,13.84
2023-04-16T05:40:13.203Z,8.00
2023-04-16T05:41:13.169Z,7.52
2023-04-16T05:42:13.210Z,7.08
2023-04-16T05:43:13.351Z,11.44
2023-04-16T05:44:13.664Z,5.24
2023-04-16T05:45:13.558Z,2.92
2023-04-16T05:46:13.933Z,11.56
2023-04-16T05:47:12.841Z,13.60
2023-04-16T05:48:13.722Z,5.88
2023-04-16T05:49:13.869Z,13.64
2023-04-16T05:50:13.864Z,11.64
2023-04-16T05:51:14.015Z,9.08
2023-04-16T05:52:12.932Z,15.76
2023-04-16T05:53:13.023Z,8.88
2023-04-16T05:54:13.124Z,12.76
2023-04-16T05:55:12.981Z,4.96
2023-04-16T05:56:13.313Z,13.44
2023-04-16T05:57:13.249Z,9.40
2023-04-16T05:58:13.259Z,8.32
2023-04-16T05:59:13.497Z,9.64
2023-04-16T06:00:13.510Z,5.04
2023-04-16T06:01:13.531Z,5.04
2023-04-16T06:02:13.884Z,15.16
2023-04-16T06:03:13.036Z,6.16
2023-04-16T06:04:13.544Z,13.72
2023-04-16T06:05:13.842Z,25.52
2023-04-16T06:06:13.831Z,9.44
2023-04-16T06:07:13.793Z,23.24
2023-04-16T06:08:14.242Z,6.76
2023-04-16T06:09:13.235Z,6.76
2023-04-16T06:10:13.097Z,6.72
2023-04-16T06:11:13.140Z,8.96
2023-04-16T06:12:13.001Z,11.92
2023-04-16T06:13:13.045Z,10.48
2023-04-16T06:14:13.470Z,3.64
2023-04-16T06:15:13.394Z,6.88
2023-04-16T06:16:13.791Z,5.92
2023-04-16T06:17:13.717Z,5.11
2023-04-16T06:18:13.705Z,5.62
2023-04-16T06:19:13.692Z,7.72
2023-04-16T06:20:13.515Z,5.28
2023-04-16T06:21:13.340Z,5.84
2023-04-16T06:22:13.360Z,9.33
2023-04-16T06:23:13.237Z,7.82
2023-04-16T06:24:13.383Z,6.28
2023-04-16T06:25:14.502Z,5.60
2023-04-16T06:26:13.639Z,9.00
2023-04-16T06:27:13.694Z,13.20
2023-04-16T06:28:13.985Z,7.92
2023-04-16T06:29:12.827Z,11.20
2023-04-16T06:30:13.647Z,10.40
2023-04-16T06:31:13.734Z,14.20
2023-04-16T06:32:13.674Z,10.20
2023-04-16T06:33:13.682Z,10.76
2023-04-16T06:34:13.586Z,7.12
2023-04-16T06:35:13.524Z,14.28
2023-04-16T06:36:13.412Z,11.08
2023-04-16T06:37:13.586Z,12.64
2023-04-16T06:38:13.970Z,5.76
2023-04-16T06:39:12.875Z,11.12
2023-04-16T06:40:14.810Z,11.80
2023-04-16T06:41:13.628Z,9.20
2023-04-16T06:42:13.670Z,5.44
2023-04-16T06:43:13.944Z,8.32
2023-04-16T06:44:12.833Z,12.88
2023-04-16T06:45:13.825Z,12.60
2023-04-16T06:46:14.015Z,9.32
2023-04-16T06:47:12.870Z,6.32
2023-04-16T06:48:13.928Z,6.80
2023-04-16T06:49:12.787Z,9.32
2023-04-16T06:50:13.670Z,10.04
2023-04-16T06:51:13.857Z,11.00
2023-04-16T06:52:13.677Z,7.84
2023-04-16T06:53:13.505Z,13.28
2023-04-16T06:54:13.388Z,16.20
2023-04-16T06:55:13.911Z,7.44
2023-04-16T06:56:12.732Z,7.24
2023-04-16T06:57:18.645Z,23.68
2023-04-16T06:58:13.561Z,24.48
2023-04-16T06:59:18.504Z,8.96
2023-04-16T07:00:18.448Z,16.64
2023-04-16T07:01:13.383Z,17.60
2023-04-16T07:02:13.436Z,17.00
2023-04-16T07:03:13.809Z,6.64
2023-04-16T07:04:18.336Z,12.08
2023-04-16T07:05:18.555Z,11.24
2023-04-16T07:06:13.554Z,10.28
2023-04-16T07:07:13.933Z,15.76
2023-04-16T07:08:12.912Z,9.76
2023-04-16T07:09:13.053Z,11.12
2023-04-16T07:10:12.872Z,16.40
2023-04-16T07:11:18.938Z,17.24
2023-04-16T07:12:14.128Z,13.44
2023-04-16T07:13:13.272Z,1.00
2023-04-16T07:14:13.373Z,13.52
2023-04-16T07:15:13.424Z,9.40
2023-04-16T07:16:13.455Z,13.72
2023-04-16T07:17:19.373Z,14.96
2023-04-16T07:18:13.569Z,15.04
2023-04-16T07:19:13.548Z,7.96
2023-04-16T07:20:13.576Z,5.64
2023-04-16T07:21:13.477Z,11.60
2023-04-16T07:22:13.584Z,3.12
2023-04-16T07:23:13.606Z,7.84
2023-04-16T07:24:13.553Z,18.36
2023-04-16T07:25:13.459Z,3.60
2023-04-16T07:26:13.328Z,13.20
2023-04-16T07:27:13.262Z,9.96
2023-04-16T07:28:13.196Z,7.44
2023-04-16T07:29:13.152Z,10.88
2023-04-16T07:30:13.192Z,26.08
2023-04-16T07:31:13.302Z,8.24
2023-04-16T07:32:15.144Z,17.80
2023-04-16T07:33:13.495Z,11.40
2023-04-16T07:34:13.573Z,23.28
2023-04-16T07:35:13.675Z,17.00
2023-04-16T07:36:13.582Z,19.68
2023-04-16T07:37:13.714Z,12.56
2023-04-16T07:38:13.518Z,4.64
2023-04-16T07:39:13.325Z,16.52
2023-04-16T07:40:13.217Z,17.32
2023-04-16T07:41:13.264Z,11.52
2023-04-16T07:42:13.255Z,3.24
2023-04-16T07:43:13.171Z,15.56
2023-04-16T07:44:13.441Z,13.08
2023-04-16T07:45:13.795Z,21.52
2023-04-16T07:46:13.688Z,16.52
2023-04-16T07:47:14.152Z,12.72
2023-04-16T07:48:13.195Z,17.24
2023-04-16T07:49:13.187Z,9.40
2023-04-16T07:50:13.397Z,13.28
2023-04-16T07:51:13.627Z,4.64
2023-04-16T07:52:13.530Z,17.16
2023-04-16T07:53:30.368Z,15.60
2023-04-16T07:54:13.742Z,21.28
2023-04-16T07:55:13.596Z,16.16
2023-04-16T07:56:13.801Z,13.92
2023-04-16T07:57:13.911Z,23.16
2023-04-16T07:58:12.923Z,14.80
2023-04-16T08:00:12.763Z,8.12
2023-04-16T08:01:13.998Z,7.47
2023-04-16T08:02:13.189Z,9.08
2023-04-16T08:03:13.349Z,13.84
2023-04-16T08:04:13.784Z,5.52
2023-04-16T08:05:12.959Z,7.80
2023-04-16T08:06:12.909Z,11.24
2023-04-16T08:07:12.716Z,16.24
2023-04-16T08:08:18.636Z,6.48
2023-04-16T08:09:13.824Z,9.60
2023-04-16T08:10:13.685Z,9.92
2023-04-16T08:11:13.511Z,19.84
2023-04-16T08:12:13.366Z,19.32
2023-04-16T08:13:13.626Z,20.20
2023-04-16T08:14:13.891Z,6.56
2023-04-16T08:15:18.626Z,9.36
2023-04-16T08:16:15.799Z,8.30
2023-04-16T08:17:12.850Z,13.28
2023-04-16T08:18:13.765Z,8.08
2023-04-16T08:19:13.721Z,15.60
2023-04-16T08:20:17.654Z,28.28
2023-04-16T08:21:13.443Z,16.52
2023-04-16T08:22:13.808Z,7.52
2023-04-16T08:23:13.890Z,21.72
2023-04-16T08:24:12.922Z,12.04
2023-04-16T08:25:12.809Z,17.12
2023-04-16T08:26:13.964Z,26.08
2023-04-16T08:27:19.088Z,30.80
2023-04-16T08:28:13.435Z,27.12
2023-04-16T08:29:13.490Z,28.44
2023-04-16T08:30:13.964Z,12.48
2023-04-16T08:31:13.213Z,11.92
2023-04-16T08:32:13.655Z,25.04
2023-04-16T08:33:13.569Z,11.40
2023-04-16T08:34:13.929Z,10.92
2023-04-16T08:35:12.943Z,15.16
2023-04-16T08:36:13.004Z,16.08
2023-04-16T08:37:13.075Z,24.12
2023-04-16T08:38:13.169Z,14.20
2023-04-16T08:39:13.568Z,15.56
2023-04-16T08:40:13.660Z,19.92
2023-04-16T08:41:13.927Z,8.88
2023-04-16T08:42:12.980Z,15.00
2023-04-16T08:43:12.817Z,30.36
2023-04-16T08:44:14.469Z,25.64
2023-04-16T08:45:13.674Z,13.64
2023-04-16T08:46:13.607Z,4.00
2023-04-16T08:47:13.971Z,10.20
2023-04-16T08:48:13.021Z,8.24
2023-04-16T08:49:12.973Z,1.40
2023-04-16T08:50:12.908Z,1.96
2023-04-16T08:51:12.838Z,4.32
2023-04-16T08:52:13.848Z,8.16
2023-04-16T08:53:13.923Z,14.56
2023-04-16T08:54:13.130Z,12.20
2023-04-16T08:55:18.290Z,15.04
2023-04-16T08:56:13.461Z,21.00
2023-04-16T08:57:13.633Z,17.32
2023-04-16T08:58:13.733Z,11.60
2023-04-16T08:59:13.976Z,4.92
2023-04-16T09:00:14.162Z,11.52
2023-04-16T09:01:13.115Z,7.52
2023-04-16T09:02:13.212Z,11.00
2023-04-16T09:03:13.918Z,16.76
2023-04-16T09:04:13.451Z,15.08
2023-04-16T09:05:13.840Z,9.32
2023-04-16T09:06:13.918Z,5.31
2023-04-16T09:07:12.819Z,8.84
2023-04-16T09:08:13.896Z,13.60
2023-04-16T09:09:13.971Z,14.24
2023-04-16T09:10:13.038Z,13.52
2023-04-16T09:11:13.219Z,14.64
2023-04-16T09:12:13.476Z,4.88
2023-04-16T09:13:13.465Z,2.68
2023-04-16T09:14:13.888Z,1.08
2023-04-16T09:15:13.054Z,3.88
2023-04-16T09:16:13.172Z,19.44
2023-04-16T09:17:13.331Z,15.12
2023-04-16T09:18:13.587Z,9.12
2023-04-16T09:19:13.487Z,14.48
2023-04-16T09:20:13.726Z,11.04
2023-04-16T09:21:13.814Z,12.44
2023-04-16T09:22:14.177Z,16.00
2023-04-16T09:23:14.029Z,9.92
2023-04-16T09:24:12.967Z,15.12
2023-04-16T09:25:12.863Z,27.88
2023-04-16T09:26:13.766Z,20.44
2023-04-16T09:27:13.724Z,12.12
2023-04-16T09:28:13.676Z,9.24
2023-04-16T09:29:13.642Z,8.60
2023-04-16T09:30:13.514Z,7.24
2023-04-16T09:31:13.590Z,8.76
2023-04-16T09:32:14.140Z,13.32
2023-04-16T09:33:18.522Z,12.68
2023-04-16T09:34:13.520Z,4.76
2023-04-16T09:35:13.811Z,5.80
2023-04-16T09:36:13.676Z,11.64
2023-04-16T09:37:13.779Z,19.12
2023-04-16T09:38:13.707Z,19.00
2023-04-16T09:39:13.572Z,10.88
2023-04-16T09:40:13.457Z,17.40
2023-04-16T09:41:13.762Z,15.48
2023-04-16T09:42:13.716Z,23.04
2023-04-16T09:43:13.974Z,11.64
2023-04-16T09:44:13.210Z,13.40
2023-04-16T09:45:13.490Z,3.40
2023-04-16T09:46:13.807Z,8.24
2023-04-16T09:47:13.636Z,16.92
2023-04-16T09:48:13.899Z,7.12
2023-04-16T09:49:13.061Z,13.92
2023-04-16T09:50:13.711Z,8.44
2023-04-16T09:51:13.741Z,13.80
2023-04-16T09:52:13.791Z,10.80
2023-04-16T09:53:13.741Z,7.52
2023-04-16T09:54:13.908Z,9.52
2023-04-16T09:55:13.029Z,12.60
2023-04-16T09:56:12.992Z,3.96
2023-04-16T09:57:13.289Z,11.32
2023-04-16T09:58:13.732Z,6.80
2023-04-16T09:59:14.064Z,8.92
2023-04-16T10:00:13.552Z,12.64
2023-04-16T10:01:13.752Z,11.00
2023-04-16T10:02:15.418Z,3.72
2023-04-16T10:03:13.764Z,4.32
2023-04-16T10:04:13.794Z,5.36
2023-04-16T10:05:13.816Z,11.32
2023-04-16T10:06:13.725Z,15.80
2023-04-16T10:07:13.681Z,22.04
2023-04-16T10:08:13.739Z,14.52
2023-04-16T10:09:13.747Z,17.52
2023-04-16T10:10:14.449Z,15.80
2023-04-16T10:11:13.678Z,7.04
2023-04-16T10:12:13.594Z,2.24
2023-04-16T10:13:13.532Z,5.40
2023-04-16T10:14:13.532Z,9.76
2023-04-16T10:15:13.525Z,11.40
2023-04-16T10:16:14.008Z,5.52
2023-04-16T10:17:12.976Z,4.40
2023-04-16T10:18:13.021Z,1.20
2023-04-16T10:19:18.070Z,7.88
2023-04-16T10:20:13.490Z,4.80
2023-04-16T10:21:13.152Z,1.64
2023-04-16T10:22:13.264Z,1.24
2023-04-16T10:23:13.413Z,5.20
2023-04-16T10:24:13.772Z,4.40
2023-04-16T10:25:13.649Z,6.28
2023-04-16T10:26:14.042Z,4.44
2023-04-16T10:27:13.103Z,3.56
2023-04-16T10:28:13.382Z,9.44
2023-04-16T10:29:13.503Z,9.36
2023-04-16T10:30:13.858Z,7.04
2023-04-16T10:31:13.970Z,11.36
2023-04-16T10:32:13.285Z,1.84
2023-04-16T10:33:13.496Z,3.40
2023-04-16T10:34:13.627Z,4.72
2023-04-16T10:35:13.767Z,2.76
2023-04-16T10:36:13.820Z,3.84
2023-04-16T10:37:14.026Z,3.96
2023-04-16T10:38:13.179Z,13.64
2023-04-16T10:39:16.690Z,7.76
2023-04-16T10:40:13.074Z,7.04
2023-04-16T10:41:12.932Z,6.84
2023-04-16T10:42:12.813Z,2.24
2023-04-16T10:43:15.127Z,9.76
2023-04-16T10:44:13.136Z,11.88
2023-04-16T10:45:13.094Z,6.52
2023-04-16T10:46:19.338Z,14.21
2023-04-16T10:47:13.446Z,10.72
2023-04-16T10:48:13.500Z,2.44
2023-04-16T10:49:13.620Z,6.44
2023-04-16T10:50:13.662Z,6.12
2023-04-16T10:51:13.684Z,9.80
2023-04-16T10:52:13.662Z,9.64
2023-04-16T10:53:13.754Z,5.64
2023-04-16T10:54:13.767Z,11.84
2023-04-16T10:55:13.921Z,16.72
2023-04-16T10:56:16.146Z,17.44
2023-04-16T10:57:13.060Z,21.80
2023-04-16T10:58:13.898Z,9.80
2023-04-16T10:59:13.008Z,13.28
2023-04-16T11:00:13.042Z,19.28
2023-04-16T11:01:13.015Z,17.52
2023-04-16T11:02:13.295Z,14.44
2023-04-16T11:03:13.445Z,21.36
2023-04-16T11:04:13.635Z,26.12
2023-04-16T11:05:13.594Z,28.64
2023-04-16T11:06:13.602Z,22.88
2023-04-16T11:07:13.622Z,26.76
2023-04-16T11:08:13.943Z,25.20
2023-04-16T11:09:13.100Z,27.80
2023-04-16T11:10:13.177Z,26.28
2023-04-16T11:11:13.122Z,7.52
2023-04-16T11:12:13.560Z,22.84
2023-04-16T11:13:13.660Z,17.16
2023-04-16T11:14:18.643Z,19.44
2023-04-16T11:15:15.023Z,7.52
2023-04-16T11:16:13.120Z,7.34
2023-04-16T11:17:13.119Z,16.12
2023-04-16T11:18:14.536Z,16.36
2023-04-16T11:19:13.438Z,8.92
2023-04-16T11:20:19.018Z,18.16
2023-04-16T11:21:13.336Z,8.56
2023-04-16T11:22:13.196Z,7.16
2023-04-16T11:23:13.144Z,4.72
2023-04-16T11:24:13.285Z,5.92
2023-04-16T11:25:13.188Z,8.64
2023-04-16T11:26:18.545Z,17.64
2023-04-16T11:27:13.688Z,5.72
2023-04-16T11:28:13.547Z,20.36
2023-04-16T11:29:13.776Z,14.88
2023-04-16T11:30:13.754Z,17.16
2023-04-16T11:31:14.070Z,22.12
2023-04-16T11:32:12.939Z,11.72
2023-04-16T11:33:12.894Z,10.32
2023-04-16T11:34:12.843Z,8.72
2023-04-16T11:35:13.842Z,8.64
2023-04-16T11:36:13.739Z,9.24
2023-04-16T11:37:13.985Z,9.52
2023-04-16T11:38:13.000Z,14.64
2023-04-16T11:39:13.051Z,8.96
2023-04-16T11:40:12.998Z,3.88
2023-04-16T11:41:13.012Z,1.12
2023-04-16T11:42:13.007Z,4.16
2023-04-16T11:43:12.913Z,0.52
2023-04-16T11:44:13.447Z,1.64
2023-04-16T11:45:13.616Z,5.28
2023-04-16T11:46:24.565Z,12.48
2023-04-16T11:47:14.032Z,11.76
2023-04-16T11:48:13.012Z,15.08
2023-04-16T11:49:13.875Z,12.48
2023-04-16T11:50:13.505Z,18.48
2023-04-16T11:51:13.482Z,12.08
2023-04-16T11:52:13.769Z,1.76
2023-04-16T11:53:13.804Z,3.04
2023-04-16T11:54:14.099Z,7.48
2023-04-16T11:55:12.960Z,9.72
2023-04-16T11:56:13.168Z,6.56
2023-04-16T11:57:13.402Z,14.76
2023-04-16T11:58:13.457Z,9.76
2023-04-16T12:00:13.157Z,7.60
2023-04-16T12:01:13.476Z,8.40
2023-04-16T12:02:13.499Z,9.16
2023-04-16T12:03:13.890Z,13.16
2023-04-16T12:04:13.265Z,12.40
2023-04-16T12:05:13.397Z,5.48
2023-04-16T12:06:13.680Z,7.36
2023-04-16T12:07:13.739Z,13.96
2023-04-16T12:08:13.918Z,9.00
2023-04-16T12:09:12.893Z,9.88
2023-04-16T12:10:13.022Z,11.00
2023-04-16T12:11:12.930Z,3.96
2023-04-16T12:12:12.864Z,4.00
2023-04-16T12:13:13.820Z,4.44
2023-04-16T12:14:13.708Z,1.56
2023-04-16T12:15:13.820Z,1.60
2023-04-16T12:16:13.701Z,7.80
2023-04-16T12:17:13.884Z,12.72
2023-04-16T12:18:12.948Z,9.28
2023-04-16T12:19:13.026Z,7.64
2023-04-16T12:20:13.210Z,4.56
2023-04-16T12:21:13.054Z,4.20
2023-04-16T12:22:12.860Z,6.00
2023-04-16T12:23:13.910Z,1.80
2023-04-16T12:24:13.020Z,6.92
2023-04-16T12:25:14.182Z,5.36
2023-04-16T12:26:13.615Z,8.36
2023-04-16T12:27:13.617Z,7.56
2023-04-16T12:28:13.583Z,8.08
2023-04-16T12:29:13.484Z,5.84
2023-04-16T12:30:13.900Z,5.00
2023-04-16T12:31:13.246Z,1.72
2023-04-16T12:32:13.171Z,2.68
2023-04-16T12:33:13.134Z,4.36
2023-04-16T12:34:13.026Z,2.96
2023-04-16T12:35:13.065Z,4.80
2023-04-16T12:36:12.996Z,9.08
2023-04-16T12:37:12.906Z,6.88
2023-04-16T12:38:13.304Z,5.72
2023-04-16T12:39:14.600Z,3.64
2023-04-16T12:40:13.557Z,2.76
2023-04-16T12:41:14.851Z,2.92
2023-04-16T12:42:13.994Z,5.44
2023-04-16T12:43:12.882Z,2.36
2023-04-16T12:44:13.477Z,6.84
2023-04-16T12:45:13.464Z,5.12
2023-04-16T12:46:13.271Z,2.72
2023-04-16T12:47:13.412Z,3.60
2023-04-16T12:48:13.461Z,4.44
2023-04-16T12:49:13.753Z,6.08
2023-04-16T12:50:13.612Z,3.64
2023-04-16T12:51:13.520Z,4.04
2023-04-16T12:52:13.899Z,6.00
2023-04-16T12:53:12.784Z,3.44
2023-04-16T12:54:13.642Z,1.76
2023-04-16T12:55:13.782Z,1.04
2023-04-16T12:56:13.641Z,4.56
2023-04-16T12:57:13.621Z,3.20
2023-04-16T12:58:13.586Z,5.00
2023-04-16T12:59:13.442Z,3.64
2023-04-16T13:00:13.468Z,5.92
2023-04-16T13:01:13.444Z,4.84
2023-04-16T13:02:13.620Z,7.12
2023-04-16T13:03:13.933Z,4.24
2023-04-16T13:04:13.250Z,3.56
2023-04-16T13:05:14.309Z,6.40
2023-04-16T13:06:13.508Z,5.20
2023-04-16T13:07:13.686Z,1.80
2023-04-16T13:08:13.889Z,0.80
2023-04-16T13:09:13.202Z,2.20
2023-04-16T13:10:13.055Z,4.00
2023-04-16T13:11:13.385Z,5.56
2023-04-16T13:12:13.525Z,1.12